Time;durP1;ratioP1;P1;durP2;ratioP2;P2;SDS_P1;SDS_P2;PMS_P1;PMS_P2;Temp;Humidity;BMP_temperature;BMP_pressure;BME280_temperature;BME280_humidity;BME280_pressure;Samples;Min_cycle;Max_cycle;Signal;HPM_P1;HPM_P2
2022/04/03 00:01:37;;;;;;;5.67;3.20;;;5.70;73.80;;;;;;6196635;23;20783;-81
2022/04/03 00:04:24;;;;;;;3.20;2.90;;;5.70;74.50;;;;;;6182774;23;20444;-83
2022/04/03 00:07:17;;;;;;;3.97;3.10;;;6.20;73.60;;;;;;6181011;23;20760;-83
2022/04/03 00:09:49;;;;;;;3.40;3.00;;;6.10;72.60;;;;;;6206760;23;20400;-84
2022/04/03 00:12:58;;;;;;;2.90;2.70;;;5.90;72.90;;;;;;6182742;23;20405;-84
2022/04/03 00:15:42;;;;;;;3.13;2.83;;;5.80;73.50;;;;;;6183187;23;20722;-86
2022/04/03 00:18:29;;;;;;;3.20;2.90;;;6.00;73.20;;;;;;6221468;23;20420;-84
2022/04/03 00:21:06;;;;;;;3.40;2.90;;;6.00;73.60;;;;;;6197728;23;20432;-85
2022/04/03 00:24:00;;;;;;;3.57;3.10;;;6.00;73.80;;;;;;6169938;23;20452;-84
2022/04/03 00:26:56;;;;;;;5.27;2.50;;;6.10;72.90;;;;;;6185451;23;20440;-85
2022/04/03 00:29:31;;;;;;;3.13;2.80;;;5.80;73.10;;;;;;6185807;23;20482;-85
2022/04/03 00:32:20;;;;;;;2.97;2.67;;;5.80;75.00;;;;;;6183146;23;20462;-84
2022/04/03 00:35:03;;;;;;;4.00;2.77;;;5.80;74.90;;;;;;6185017;23;20411;-85
2022/04/03 00:37:53;;;;;;;3.17;2.97;;;5.80;74.40;;;;;;6206313;23;20420;-86
2022/04/03 00:40:34;;;;;;;4.20;2.80;;;5.90;74.60;;;;;;6183626;23;20448;-84
2022/04/03 00:43:58;;;;;;;3.33;3.03;;;6.00;74.50;;;;;;6185242;23;21090;-84
2022/04/03 00:46:41;;;;;;;3.07;2.80;;;6.00;74.20;;;;;;6192883;23;20503;-83
2022/04/03 00:49:20;;;;;;;3.80;2.90;;;6.00;75.40;;;;;;6209737;23;20412;-86
2022/04/03 00:51:55;;;;;;;2.80;2.60;;;6.00;74.90;;;;;;6207216;23;20463;-84
2022/04/03 00:54:49;;;;;;;3.30;3.00;;;5.80;75.50;;;;;;6206530;23;20429;-83
2022/04/03 00:57:31;;;;;;;4.10;2.77;;;5.80;75.70;;;;;;6207369;23;20428;-84
2022/04/03 01:00:42;;;;;;;;;;;;;;;;;;;;;
2022/04/03 01:03:45;;;;;;;8.03;3.07;;;5.60;76.40;;;;;;6208914;23;20397;-85
2022/04/03 01:06:28;;;;;;;3.33;3.03;;;5.90;76.40;;;;;;6208683;23;20480;-85
2022/04/03 01:09:21;;;;;;;4.83;3.53;;;5.70;76.00;;;;;;6207332;23;20428;-84
2022/04/03 01:12:10;;;;;;;4.60;2.60;;;5.50;77.00;;;;;;6205086;23;20393;-84
2022/04/03 01:15:00;;;;;;;5.30;3.33;;;5.70;77.50;;;;;;6188780;23;20500;-84
2022/04/03 01:18:12;;;;;;;3.47;3.17;;;5.70;77.00;;;;;;6155142;23;20481;-85
2022/04/03 01:24:06;;;;;;;3.53;3.00;;;5.70;78.00;;;;;;6181967;23;21197;-85
2022/04/03 01:27:06;;;;;;;7.97;3.80;;;5.80;77.20;;;;;;6160051;23;20422;-85
2022/04/03 01:29:48;;;;;;;4.40;3.27;;;5.50;77.60;;;;;;6153938;23;20441;-85
2022/04/03 01:32:27;;;;;;;6.50;3.10;;;5.80;78.50;;;;;;6156735;23;20489;-83
2022/04/03 01:35:23;;;;;;;4.00;3.13;;;5.60;78.50;;;;;;6158988;23;20391;-84
2022/04/03 01:37:57;;;;;;;7.77;3.20;;;5.50;78.60;;;;;;6154918;23;20410;-83
2022/04/03 01:40:41;;;;;;;4.17;3.70;;;5.80;78.10;;;;;;6158081;23;20406;-83
2022/04/03 01:43:31;;;;;;;5.00;3.27;;;5.90;77.80;;;;;;6155079;23;20877;-82
2022/04/03 01:46:26;;;;;;;3.13;2.90;;;6.00;77.10;;;;;;6153793;23;20437;-85
2022/04/03 01:49:10;;;;;;;3.50;3.20;;;5.70;76.40;;;;;;6152957;23;20992;-85
2022/04/03 01:51:55;;;;;;;4.67;3.43;;;5.60;77.10;;;;;;6158577;23;20413;-85
2022/04/03 01:54:28;;;;;;;7.33;3.60;;;5.70;77.30;;;;;;6205186;23;20480;-85
2022/04/03 01:57:17;;;;;;;3.67;3.37;;;6.00;76.10;;;;;;6206759;23;20436;-85
2022/04/03 02:00:01;;;;;;;3.50;2.80;;;5.90;75.60;;;;;;6207614;23;20409;-84
2022/04/03 02:02:58;;;;;;;3.30;3.00;;;5.80;76.30;;;;;;6192164;23;20416;-85
2022/04/03 02:05:52;;;;;;;4.20;3.20;;;5.80;76.50;;;;;;6179543;23;20453;-84
2022/04/03 02:08:32;;;;;;;3.33;2.97;;;5.70;76.60;;;;;;6205860;23;20515;-85
2022/04/03 02:14:29;;;;;;;2.97;2.77;;;5.60;76.50;;;;;;6204776;23;20477;-84
2022/04/03 02:17:19;;;;;;;3.67;3.00;;;5.50;77.70;;;;;;6210693;23;20417;-84
2022/04/03 02:23:14;;;;;;;4.13;3.40;;;5.60;77.60;;;;;;6206207;23;20441;-85
2022/04/03 02:25:46;;;;;;;4.10;3.70;;;5.80;76.70;;;;;;6207731;23;20475;-84
2022/04/03 02:28:28;;;;;;;3.70;2.80;;;5.60;76.50;;;;;;6228604;23;20457;-83
2022/04/03 02:31:18;;;;;;;5.10;3.73;;;5.50;77.30;;;;;;6209635;23;20492;-83
2022/04/03 02:33:46;;;;;;;3.93;3.60;;;5.70;76.80;;;;;;6209938;23;20474;-83
2022/04/03 02:36:19;;;;;;;3.83;3.50;;;5.50;76.90;;;;;;6208692;23;20437;-83
2022/04/03 02:38:49;;;;;;;3.83;3.33;;;5.70;77.80;;;;;;6211006;23;20451;-84
2022/04/03 02:41:27;;;;;;;3.37;3.07;;;5.50;78.00;;;;;;6217402;23;20419;-84
2022/04/03 02:44:18;;;;;;;3.90;3.50;;;5.70;78.20;;;;;;6084294;23;20448;-82
2022/04/03 02:46:52;;;;;;;5.90;4.17;;;5.70;77.00;;;;;;6079501;23;20515;-83
2022/04/03 02:49:23;;;;;;;5.00;3.70;;;5.70;77.30;;;;;;6103719;23;20440;-85
2022/04/03 02:52:14;;;;;;;4.03;3.30;;;5.60;77.70;;;;;;6085624;23;20654;-84
2022/04/03 02:54:41;;;;;;;3.40;3.20;;;5.70;78.70;;;;;;6085987;23;20401;-84
2022/04/03 02:57:12;;;;;;;4.13;3.70;;;5.50;78.50;;;;;;6109251;23;20515;-82
2022/04/03 02:59:53;;;;;;;3.87;3.57;;;5.60;78.50;;;;;;6085978;23;20453;-83
2022/04/03 03:02:49;;;;;;;3.70;3.40;;;5.70;77.70;;;;;;6085901;23;20481;-85
2022/04/03 03:05:29;;;;;;;4.60;4.10;;;5.90;76.90;;;;;;6083347;23;20521;-84
2022/04/03 03:07:56;;;;;;;4.17;3.77;;;5.80;76.70;;;;;;6106157;23;20409;-81
2022/04/03 03:10:35;;;;;;;3.73;3.27;;;5.70;77.50;;;;;;6102612;23;20440;-83
2022/04/03 03:13:06;;;;;;;3.70;3.40;;;5.70;77.30;;;;;;6081308;23;20456;-84
2022/04/03 03:15:52;;;;;;;3.70;3.33;;;5.60;77.50;;;;;;6078500;23;20444;-84
2022/04/03 03:18:22;;;;;;;3.67;3.37;;;5.50;78.00;;;;;;6103597;23;20505;-83
2022/04/03 03:20:59;;;;;;;4.10;3.30;;;5.60;78.30;;;;;;6123275;23;20758;-83
2022/04/03 03:23:40;;;;;;;3.70;3.40;;;5.40;78.00;;;;;;6204375;23;20413;-83
2022/04/03 03:26:26;;;;;;;4.83;3.50;;;5.50;78.70;;;;;;6203755;23;20504;-85
2022/04/03 03:29:27;;;;;;;6.30;5.80;;;5.50;78.00;;;;;;6222808;23;20496;-85
2022/04/03 03:32:09;;;;;;;3.80;3.50;;;5.40;78.60;;;;;;6223722;23;20488;-84
2022/04/03 03:34:59;;;;;;;4.77;3.60;;;5.70;78.10;;;;;;6222534;23;20475;-85
2022/04/03 03:37:29;;;;;;;4.70;3.30;;;5.70;77.50;;;;;;6240571;23;20570;-84
2022/04/03 03:40:39;;;;;;;4.67;3.57;;;5.70;77.50;;;;;;6210414;23;20397;-84
2022/04/03 03:43:09;;;;;;;4.20;3.80;;;5.40;78.10;;;;;;6217890;23;20504;-85
2022/04/03 03:45:49;;;;;;;4.97;3.57;;;5.40;78.50;;;;;;6221969;23;20454;-85
2022/04/03 03:48:18;;;;;;;7.90;3.37;;;5.40;78.70;;;;;;6226927;23;20409;-83
2022/04/03 03:51:09;;;;;;;4.73;4.23;;;5.20;78.70;;;;;;6226898;23;20497;-84
2022/04/03 03:53:45;;;;;;;5.10;4.70;;;5.20;79.30;;;;;;6247831;23;20470;-82
2022/04/03 03:56:32;;;;;;;4.57;4.07;;;5.20;79.80;;;;;;6220881;23;20432;-82
2022/04/03 03:59:11;;;;;;;3.70;3.40;;;5.40;79.50;;;;;;6225438;23;20389;-84
2022/04/03 04:02:17;;;;;;;3.93;3.53;;;5.60;79.00;;;;;;6221442;23;20456;-84
2022/04/03 04:04:59;;;;;;;;;;;;;;;;;;;;;
2022/04/03 04:07:53;;;;;;;3.80;3.50;;;5.60;78.20;;;;;;6226617;23;20412;-84
2022/04/03 04:10:23;;;;;;;5.80;3.17;;;5.50;78.30;;;;;;6248934;23;20409;-83
2022/04/03 04:12:57;;;;;;;3.53;3.07;;;5.40;78.90;;;;;;6226305;23;20401;-85
2022/04/03 04:15:37;;;;;;;3.47;3.17;;;5.40;79.90;;;;;;6226029;23;20417;-85
2022/04/03 04:18:42;;;;;;;6.57;3.90;;;5.40;79.90;;;;;;6249570;23;20409;-86
2022/04/03 04:21:21;;;;;;;3.83;3.53;;;5.50;80.40;;;;;;6226361;23;20494;-85
2022/04/03 04:24:01;;;;;;;5.93;3.40;;;5.30;80.20;;;;;;6223609;23;20389;-85
2022/04/03 04:26:34;;;;;;;5.30;3.70;;;5.20;80.90;;;;;;6221072;23;20448;-83
2022/04/03 04:29:17;;;;;;;4.03;3.20;;;5.20;81.50;;;;;;6246635;23;20397;-86
2022/04/03 04:31:58;;;;;;;3.40;3.10;;;5.10;82.10;;;;;;6218912;23;20419;-84
2022/04/03 04:34:35;;;;;;;3.97;3.40;;;5.00;82.60;;;;;;6208736;23;20472;-86
2022/04/03 04:37:18;;;;;;;4.40;3.30;;;5.00;83.30;;;;;;6232835;23;20444;-86
2022/04/03 04:39:50;;;;;;;4.87;3.40;;;5.10;83.90;;;;;;6210925;23;20471;-85
2022/04/03 04:42:19;;;;;;;3.60;3.30;;;5.10;84.10;;;;;;6207017;23;21093;-84
2022/04/03 04:44:47;;;;;;;6.90;3.50;;;5.10;84.00;;;;;;6208567;23;20413;-84
2022/04/03 04:47:17;;;;;;;4.10;3.57;;;5.00;83.90;;;;;;6208348;23;20465;-85
2022/04/03 04:49:51;;;;;;;3.77;3.47;;;5.10;84.20;;;;;;6212218;23;20440;-83
2022/04/03 04:52:38;;;;;;;5.17;3.83;;;5.20;83.90;;;;;;6205655;23;20385;-86
2022/04/03 04:55:09;;;;;;;6.30;3.60;;;5.10;83.80;;;;;;6212391;23;20412;-84
2022/04/03 04:57:37;;;;;;;9.60;3.40;;;5.20;84.20;;;;;;6212954;23;20439;-83
2022/04/03 05:00:13;;;;;;;3.40;3.10;;;5.20;84.20;;;;;;6213275;23;20404;-82
2022/04/03 05:02:40;;;;;;;4.03;3.63;;;5.20;84.40;;;;;;6212238;23;20519;-84
2022/04/03 05:05:08;;;;;;;4.20;3.80;;;5.10;84.50;;;;;;6213847;23;20409;-84
2022/04/03 05:07:35;;;;;;;3.87;3.47;;;5.00;84.80;;;;;;6214212;23;20421;-86
2022/04/03 05:10:03;;;;;;;3.47;3.17;;;5.00;84.80;;;;;;6219720;23;20403;-84
2022/04/03 05:12:36;;;;;;;3.80;3.43;;;4.90;84.80;;;;;;6190094;23;20413;-83
2022/04/03 05:15:03;;;;;;;3.13;2.83;;;4.90;85.10;;;;;;6210532;23;20971;-82
2022/04/03 05:17:30;;;;;;;4.17;3.77;;;4.90;85.60;;;;;;6211295;23;20459;-82
2022/04/03 05:19:57;;;;;;;4.30;3.37;;;4.90;85.80;;;;;;6211935;23;20419;-84
2022/04/03 05:22:25;;;;;;;4.27;3.80;;;5.00;85.90;;;;;;6210803;23;20524;-83
2022/04/03 05:25:13;;;;;;;4.10;3.70;;;5.00;85.60;;;;;;6231288;23;20409;-85
2022/04/03 05:27:41;;;;;;;7.57;4.20;;;5.00;85.50;;;;;;6234878;23;20445;-85
2022/04/03 05:30:09;;;;;;;7.97;3.50;;;4.90;85.60;;;;;;6232461;23;20408;-85
2022/04/03 05:32:36;;;;;;;5.90;3.87;;;5.00;85.90;;;;;;6234367;23;20428;-85
2022/04/03 05:35:05;;;;;;;3.60;3.20;;;5.00;85.90;;;;;;6230638;23;20408;-83
2022/04/03 05:37:37;;;;;;;4.23;3.60;;;4.90;85.80;;;;;;6226691;23;20429;-83
2022/04/03 05:40:05;;;;;;;3.83;3.53;;;5.00;85.60;;;;;;6210924;23;20416;-84
2022/04/03 05:42:33;;;;;;;4.77;3.30;;;5.00;85.40;;;;;;6211531;23;20472;-84
2022/04/03 05:45:00;;;;;;;4.03;3.73;;;4.90;85.60;;;;;;6211562;23;20416;-84
2022/04/03 05:47:27;;;;;;;3.90;3.60;;;4.90;86.00;;;;;;6202840;23;20460;-85
2022/04/03 05:49:57;;;;;;;4.00;3.70;;;5.00;86.10;;;;;;6204566;23;20511;-85
2022/04/03 05:52:24;;;;;;;5.20;3.80;;;4.90;85.90;;;;;;6204920;23;20454;-85
2022/04/03 05:54:53;;;;;;;5.20;3.80;;;4.90;86.20;;;;;;6204037;23;20412;-84
2022/04/03 05:57:20;;;;;;;4.90;3.87;;;4.90;86.50;;;;;;6205035;23;20476;-84
2022/04/03 05:59:47;;;;;;;4.23;3.83;;;4.90;86.70;;;;;;6204736;23;20420;-85
2022/04/03 06:02:31;;;;;;;6.33;4.10;;;4.90;86.80;;;;;;6205548;23;20421;-83
2022/04/03 06:05:20;;;;;;;4.67;3.97;;;4.80;86.80;;;;;;6203189;23;20733;-85
2022/04/03 06:08:03;;;;;;;3.90;3.50;;;4.80;87.10;;;;;;6206049;23;20427;-82
2022/04/03 06:10:37;;;;;;;3.77;3.40;;;5.00;87.20;;;;;;6206268;23;20475;-85
2022/04/03 06:13:25;;;;;;;5.30;3.80;;;5.00;87.10;;;;;;6206982;23;20493;-86
2022/04/03 06:16:15;;;;;;;5.53;3.80;;;5.00;87.50;;;;;;6201561;23;20440;-84
2022/04/03 06:22:01;;;;;;;3.90;3.33;;;4.90;88.40;;;;;;6224638;23;20429;-84
2022/04/03 06:24:36;;;;;;;6.80;3.87;;;4.80;88.50;;;;;;6226171;23;20409;-84
2022/04/03 06:27:18;;;;;;;4.73;4.23;;;4.80;88.80;;;;;;6208403;23;20538;-82
2022/04/03 06:29:49;;;;;;;5.77;3.80;;;5.00;89.30;;;;;;6203500;23;20483;-82
2022/04/03 06:32:53;;;;;;;5.63;3.80;;;6.00;88.60;;;;;;6202898;23;20488;-83
2022/04/03 06:35:49;;;;;;;4.23;3.33;;;6.80;81.80;;;;;;6205045;23;20433;-82
2022/04/03 06:38:33;;;;;;;3.80;3.43;;;6.10;80.10;;;;;;6204783;23;20463;-82
2022/04/03 06:41:17;;;;;;;4.60;3.90;;;5.60;82.20;;;;;;6199271;23;21264;-83
2022/04/03 06:44:07;;;;;;;5.03;4.00;;;5.50;84.00;;;;;;6204754;23;20405;-82
2022/04/03 06:46:54;;;;;;;4.03;3.63;;;5.40;84.60;;;;;;6202465;23;20456;-85
2022/04/03 06:49:35;;;;;;;4.43;4.03;;;5.30;84.80;;;;;;6203321;23;20399;-85
2022/04/03 06:52:08;;;;;;;4.80;4.03;;;5.10;85.40;;;;;;6206101;23;20480;-85
2022/04/03 06:55:02;;;;;;;9.73;4.33;;;5.10;87.00;;;;;;6204568;23;21464;-83
2022/04/03 06:57:54;;;;;;;4.53;3.60;;;5.50;86.10;;;;;;6211108;23;20413;-84
2022/04/03 07:00:40;;;;;;;5.77;4.00;;;6.00;84.00;;;;;;6219826;23;20460;-84
2022/04/03 07:03:27;;;;;;;5.07;3.53;;;6.70;83.30;;;;;;6222094;23;20429;-84
2022/04/03 07:06:15;;;;;;;5.53;3.50;;;7.50;79.20;;;;;;6211931;23;20449;-85
2022/04/03 07:09:08;;;;;;;4.00;3.50;;;9.20;74.80;;;;;;6220503;23;20409;-85
2022/04/03 07:12:15;;;;;;;8.23;3.77;;;9.10;69.20;;;;;;6211234;23;20841;-85
2022/04/03 07:14:52;;;;;;;4.30;3.80;;;10.00;67.90;;;;;;6205950;23;20409;-86
2022/04/03 07:21:21;;;;;;;4.57;4.17;;;12.60;58.10;;;;;;6087254;23;20416;-84
2022/04/03 07:24:08;;;;;;;4.47;4.00;;;14.70;54.60;;;;;;6085575;23;20421;-86
2022/04/03 07:26:58;;;;;;;4.33;3.87;;;16.30;51.10;;;;;;6199823;23;20452;-86
2022/04/03 07:29:44;;;;;;;6.53;5.70;;;17.50;46.50;;;;;;6202943;23;21324;-86
2022/04/03 07:32:39;;;;;;;4.27;3.87;;;17.00;44.20;;;;;;6204520;23;20412;-86
2022/04/03 07:35:32;;;;;;;5.97;4.37;;;17.60;44.30;;;;;;6193127;23;20999;-86
2022/04/03 07:38:14;;;;;;;5.50;4.50;;;20.10;41.50;;;;;;6187219;23;20420;-85
2022/04/03 07:41:16;;;;;;;5.27;4.80;;;21.30;38.60;;;;;;6205304;23;20417;-86
2022/04/03 07:43:57;;;;;;;4.50;4.10;;;20.50;36.40;;;;;;6203626;23;20415;-84
2022/04/03 07:46:58;;;;;;;4.53;3.90;;;19.50;36.80;;;;;;6202159;23;20448;-85
2022/04/03 07:49:42;;;;;;;15.40;13.77;;;19.70;37.60;;;;;;6203619;23;20614;-84
2022/04/03 07:52:33;;;;;;;6.50;5.17;;;22.10;34.70;;;;;;6203682;23;20448;-84
2022/04/03 07:55:39;;;;;;;4.70;4.20;;;22.10;33.00;;;;;;6218974;23;20441;-86
2022/04/03 07:58:28;;;;;;;6.17;4.83;;;22.30;32.70;;;;;;6210380;23;20401;-85
2022/04/03 08:04:14;;;;;;;;;;;;;;;;;;;;;
2022/04/03 08:06:46;;;;;;;4.97;4.57;;;22.20;31.30;;;;;;6197548;23;20452;-87
2022/04/03 08:09:51;;;;;;;6.60;5.20;;;19.40;32.50;;;;;;6185899;23;20538;-85
2022/04/03 08:12:55;;;;;;;4.77;4.10;;;18.70;34.80;;;;;;6216507;22;20543;-87
2022/04/03 08:15:49;;;;;;;6.30;4.00;;;19.60;33.70;;;;;;6235610;23;20404;-84
2022/04/03 08:21:56;;;;;;;5.23;4.73;;;20.80;31.80;;;;;;6239654;23;20506;-84
2022/04/03 08:25:09;;;;;;;4.33;3.50;;;21.10;31.50;;;;;;6237826;23;20414;-84
2022/04/03 08:28:05;;;;;;;3.90;3.60;;;21.20;30.50;;;;;;6237828;23;20443;-85
2022/04/03 08:31:05;;;;;;;5.03;4.00;;;21.50;29.20;;;;;;6144695;23;21255;-84
2022/04/03 08:33:35;;;;;;;3.87;3.57;;;20.60;29.10;;;;;;6143294;23;20430;-86
2022/04/03 08:36:26;;;;;;;3.73;3.43;;;20.50;29.10;;;;;;6147685;23;20450;-86
2022/04/03 08:39:30;;;;;;;4.13;3.77;;;23.30;26.80;;;;;;6145511;23;20991;-83
2022/04/03 08:42:34;;;;;;;3.73;3.53;;;23.10;26.20;;;;;;6145964;23;20407;-85
2022/04/03 08:45:15;;;;;;;4.07;3.77;;;23.10;26.10;;;;;;6147846;23;20420;-87
2022/04/03 08:49:06;;;;;;;4.33;3.93;;;21.70;26.60;;;;;;6142854;23;20547;-88
2022/04/03 08:51:54;;;;;;;4.10;3.80;;;20.20;27.40;;;;;;6105285;23;20407;-86
2022/04/03 08:54:54;;;;;;;3.87;3.53;;;19.00;28.60;;;;;;6143207;23;20438;-85
2022/04/03 08:57:43;;;;;;;4.80;4.33;;;18.30;29.20;;;;;;6140498;23;20522;-84
2022/04/03 09:00:46;;;;;;;4.17;3.87;;;15.70;30.60;;;;;;6137791;23;20415;-85
2022/04/03 09:03:35;;;;;;;4.70;4.30;;;14.10;33.20;;;;;;6258393;22;20483;-85
2022/04/03 09:07:01;;;;;;;5.00;4.50;;;14.00;34.80;;;;;;6233866;23;20474;-87
2022/04/03 09:09:50;;;;;;;4.80;4.40;;;13.00;35.90;;;;;;6230817;23;20418;-84
2022/04/03 09:13:02;;;;;;;;;;;;;;;;;;;;;
2022/04/03 09:15:37;;;;;;;6.13;3.50;;;12.00;39.30;;;;;;6238510;23;20424;-85
2022/04/03 09:18:18;;;;;;;4.27;2.90;;;13.40;37.90;;;;;;6236485;23;20446;-88
2022/04/03 09:21:13;;;;;;;3.60;3.30;;;13.70;35.40;;;;;;6238250;23;20478;-85
2022/04/03 09:24:12;;;;;;;3.10;2.80;;;12.60;35.80;;;;;;6238066;23;20427;-85
2022/04/03 09:27:03;;;;;;;3.37;3.07;;;14.80;33.50;;;;;;6235587;23;20447;-84
2022/04/03 09:29:59;;;;;;;3.83;3.10;;;15.10;32.20;;;;;;6228179;23;20400;-84
2022/04/03 09:32:32;;;;;;;3.03;2.73;;;13.40;32.50;;;;;;6235955;22;20387;-84
2022/04/03 09:35:10;;;;;;;3.77;2.70;;;13.00;33.50;;;;;;6242168;22;20412;-84
2022/04/03 09:38:17;;;;;;;3.13;2.80;;;13.80;32.90;;;;;;6239901;22;20431;-84
2022/04/03 09:41:22;;;;;;;2.13;1.93;;;15.00;30.60;;;;;;6247453;23;20359;-86
2022/04/03 09:43:59;;;;;;;2.20;2.00;;;14.10;29.30;;;;;;6228021;23;20582;-86
2022/04/03 09:47:14;;;;;;;2.40;2.20;;;14.20;28.40;;;;;;6248247;22;20447;-85
2022/04/03 09:50:07;;;;;;;2.80;2.60;;;13.50;28.50;;;;;;6243941;23;20407;-85
2022/04/03 09:53:01;;;;;;;3.13;2.93;;;13.70;29.60;;;;;;6238545;23;20498;-87
2022/04/03 09:55:44;;;;;;;3.80;3.47;;;12.10;31.00;;;;;;6239079;23;20436;-86
2022/04/03 09:58:30;;;;;;;5.50;5.10;;;11.40;33.80;;;;;;6207388;23;20407;-87
2022/04/03 10:01:22;;;;;;;4.13;2.90;;;10.70;37.10;;;;;;6239364;23;20400;-87
2022/04/03 10:04:18;;;;;;;3.67;3.47;;;11.60;37.10;;;;;;6247810;23;20409;-84
2022/04/03 10:07:14;;;;;;;5.00;4.50;;;11.90;36.40;;;;;;6253103;23;20455;-84
2022/04/03 10:09:48;;;;;;;4.20;3.80;;;11.50;36.70;;;;;;6250873;23;20408;-85
2022/04/03 10:12:31;;;;;;;4.30;3.90;;;11.20;37.90;;;;;;6246781;23;20405;-85
2022/04/03 10:15:42;;;;;;;5.00;4.50;;;12.10;37.50;;;;;;6238773;23;20407;-84
2022/04/03 10:18:21;;;;;;;4.10;3.80;;;12.20;36.30;;;;;;6237667;23;20495;-87
2022/04/03 10:20:59;;;;;;;4.43;3.00;;;11.80;36.40;;;;;;6239439;22;20422;-83
2022/04/03 10:23:43;;;;;;;4.43;3.40;;;11.30;35.50;;;;;;6253444;22;20931;-83
2022/04/03 10:37:37;;;;;;;3.63;3.23;;;10.00;38.20;;;;;;6122440;23;20526;-87
2022/04/03 10:40:45;;;;;;;5.57;3.60;;;11.10;38.40;;;;;;5990940;23;20472;-87
2022/04/03 10:43:35;;;;;;;3.77;3.47;;;11.60;36.70;;;;;;5990433;23;20970;-86
2022/04/03 10:46:09;;;;;;;3.63;3.33;;;11.50;36.40;;;;;;5989573;23;20515;-83
2022/04/03 10:48:43;;;;;;;3.50;3.00;;;11.00;36.20;;;;;;5980066;23;20554;-87
2022/04/03 10:51:34;;;;;;;3.27;2.70;;;10.70;36.40;;;;;;5981291;23;21084;-86
2022/04/03 10:54:07;;;;;;;3.77;2.90;;;10.80;36.60;;;;;;6013988;23;20403;-84
2022/04/03 10:56:54;;;;;;;8.57;2.93;;;11.20;36.20;;;;;;6006512;23;20434;-86
2022/04/03 10:59:40;;;;;;;3.67;3.30;;;11.40;35.20;;;;;;5990825;23;20399;-85
2022/04/03 11:02:14;;;;;;;3.77;3.20;;;11.10;35.10;;;;;;5992956;23;20411;-84
2022/04/03 11:04:53;;;;;;;3.73;3.07;;;10.80;36.00;;;;;;6009905;23;20411;-83
2022/04/03 11:07:26;;;;;;;3.33;3.00;;;10.70;36.50;;;;;;5977693;23;20455;-81
2022/04/03 11:10:16;;;;;;;3.20;2.90;;;10.50;37.20;;;;;;5986872;23;20495;-84
2022/04/03 11:13:07;;;;;;;3.00;2.60;;;10.60;38.10;;;;;;6235663;23;20500;-85
2022/04/03 11:15:54;;;;;;;3.43;3.17;;;10.60;38.20;;;;;;6236210;23;20464;-84
2022/04/03 11:19:29;;;;;;;5.10;3.40;;;10.70;38.00;;;;;;6230718;23;20407;-85
2022/04/03 11:22:20;;;;;;;3.20;2.97;;;10.80;38.30;;;;;;6203191;23;20412;-84
2022/04/03 11:25:01;;;;;;;3.30;3.10;;;10.90;37.80;;;;;;6233476;22;20404;-84
2022/04/03 11:31:31;;;;;;;3.27;2.40;;;10.60;37.60;;;;;;6242736;22;20443;-84
2022/04/03 11:34:40;;;;;;;4.63;3.60;;;10.50;37.60;;;;;;6232578;23;20610;-83
2022/04/03 11:37:31;;;;;;;2.60;2.40;;;10.40;37.90;;;;;;6219499;22;20480;-85
2022/04/03 11:40:29;;;;;;;3.70;2.60;;;10.50;38.60;;;;;;6210809;23;20401;-85
2022/04/03 11:43:19;;;;;;;3.23;2.93;;;10.80;38.70;;;;;;6233581;23;20452;-84
2022/04/03 11:46:37;;;;;;;3.67;3.37;;;10.70;38.30;;;;;;6174569;23;20555;-84
2022/04/03 11:49:41;;;;;;;3.23;2.90;;;11.20;37.70;;;;;;6208694;23;20392;-83
2022/04/03 11:52:52;;;;;;;4.33;3.03;;;11.30;37.60;;;;;;6214912;23;21234;-87
2022/04/03 11:56:10;;;;;;;3.00;2.67;;;11.30;38.20;;;;;;6222791;23;20416;-83
2022/04/03 11:59:21;;;;;;;3.73;3.07;;;11.40;38.20;;;;;;6231443;23;20414;-84
2022/04/03 12:02:17;;;;;;;5.00;2.70;;;10.80;39.30;;;;;;6208779;23;20431;-85
2022/04/03 12:04:56;;;;;;;2.90;2.40;;;10.70;39.80;;;;;;6207079;23;20934;-84
2022/04/03 12:07:35;;;;;;;2.87;2.50;;;11.30;39.70;;;;;;6207082;23;20448;-84
2022/04/03 12:10:34;;;;;;;2.67;2.47;;;11.00;39.40;;;;;;6212137;23;20503;-85
2022/04/03 12:13:45;;;;;;;2.30;2.10;;;11.20;39.60;;;;;;6210688;23;20408;-86
2022/04/03 12:16:24;;;;;;;2.60;2.40;;;11.20;39.90;;;;;;6208199;23;20548;-84
2022/04/03 12:22:23;;;;;;;2.10;1.97;;;11.80;39.60;;;;;;6229717;23;20412;-85
2022/04/03 12:25:28;;;;;;;2.60;2.40;;;11.60;38.90;;;;;;6199403;23;20413;-81
2022/04/03 12:31:28;;;;;;;2.47;1.90;;;11.60;39.10;;;;;;6226648;23;20432;-86
2022/04/03 12:34:12;;;;;;;2.50;2.30;;;11.90;39.70;;;;;;6184567;23;20511;-85
2022/04/03 12:37:03;;;;;;;1.90;1.80;;;13.00;39.10;;;;;;6217781;23;20487;-85
2022/04/03 12:39:44;;;;;;;3.07;2.17;;;14.20;36.90;;;;;;6215212;23;20647;-83
2022/04/03 12:42:25;;;;;;;2.60;2.30;;;14.70;34.80;;;;;;6231034;23;20420;-85
2022/04/03 12:45:17;;;;;;;4.37;1.67;;;13.80;35.40;;;;;;6233011;23;20419;-85
2022/04/03 12:48:26;;;;;;;2.50;2.00;;;13.70;36.20;;;;;;6209119;23;20531;-84
2022/04/03 12:51:28;;;;;;;1.80;1.70;;;13.80;36.00;;;;;;6065232;23;20397;-84
2022/04/03 12:54:08;;;;;;;2.80;1.83;;;15.50;35.20;;;;;;6084319;23;20460;-86
2022/04/03 13:00:06;;;;;;;2.07;1.97;;;15.20;32.90;;;;;;6085428;23;21051;-85
2022/04/03 13:02:56;;;;;;;1.87;1.77;;;14.90;33.70;;;;;;6062592;23;20419;-83
2022/04/03 13:05:40;;;;;;;3.10;2.73;;;14.30;34.40;;;;;;6051138;23;20441;-85
2022/04/03 13:08:58;;;;;;;;;;;;;;;;;;;;;
2022/04/03 13:15:04;;;;;;;;;;;;;;;;;;;;;
2022/04/03 13:17:49;;;;;;;1.70;1.60;;;13.20;37.00;;;;;;6222668;22;20467;-85
2022/04/03 13:20:34;;;;;;;1.90;1.73;;;13.30;37.50;;;;;;6236622;23;20519;-85
2022/04/03 13:24:12;;;;;;;3.13;2.13;;;13.60;38.00;;;;;;6218143;23;20465;-84
2022/04/03 13:31:00;;;;;;;1.77;1.67;;;13.40;36.90;;;;;;6181923;23;20399;-84
2022/04/03 13:33:31;;;;;;;1.80;1.70;;;12.80;37.20;;;;;;6244139;23;20563;-85
2022/04/03 13:36:38;;;;;;;;;;;;;;;;;;;;;
2022/04/03 13:39:44;;;;;;;1.70;1.60;;;12.40;39.10;;;;;;6038460;23;20485;-85
2022/04/03 13:42:38;;;;;;;3.63;2.87;;;13.10;38.30;;;;;;6032807;23;20477;-85
2022/04/03 13:49:00;;;;;;;2.17;1.60;;;13.30;38.10;;;;;;5981678;23;20457;-84
2022/04/03 13:51:54;;;;;;;;;;;;;;;;;;;;;
2022/04/03 13:55:29;;;;;;;2.30;1.70;;;13.50;37.90;;;;;;6022237;23;20469;-86
2022/04/03 13:58:30;;;;;;;;;;;;;;;;;;;;;
2022/04/03 14:01:23;;;;;;;1.63;1.53;;;12.50;37.90;;;;;;6005848;23;20499;-85
2022/04/03 14:04:20;;;;;;;6.23;1.60;;;12.50;38.80;;;;;;5978117;23;20403;-85
2022/04/03 14:07:28;;;;;;;2.17;1.63;;;12.40;38.60;;;;;;6012904;23;20442;-85
2022/04/03 14:11:13;;;;;;;1.47;1.23;;;12.30;39.10;;;;;;6025338;23;20415;-84
2022/04/03 14:14:43;;;;;;;2.17;1.70;;;12.50;38.20;;;;;;6157899;23;20408;-85
2022/04/03 14:17:42;;;;;;;2.83;1.37;;;12.40;38.20;;;;;;6179238;23;20427;-85
2022/04/03 14:21:10;;;;;;;1.37;1.27;;;12.10;39.00;;;;;;6236850;23;20440;-85
2022/04/03 14:24:59;;;;;;;2.57;1.57;;;12.30;39.70;;;;;;6123056;23;20449;-86
2022/04/03 14:27:37;;;;;;;1.43;1.20;;;12.20;39.00;;;;;;6033474;23;20461;-85
2022/04/03 14:33:53;;;;;;;1.30;1.20;;;11.40;40.50;;;;;;6184973;23;20397;-84
2022/04/03 14:37:02;;;;;;;2.27;1.43;;;11.20;41.20;;;;;;6157529;23;20469;-83
2022/04/03 14:40:04;;;;;;;3.03;1.40;;;11.00;42.20;;;;;;6095956;23;20434;-85
2022/04/03 14:43:45;;;;;;;2.03;1.93;;;11.10;43.50;;;;;;6115630;23;20389;-84
2022/04/03 14:50:05;;;;;;;2.73;1.60;;;11.30;43.00;;;;;;6239579;22;20450;-84
2022/04/03 14:53:19;;;;;;;2.20;1.57;;;11.10;42.90;;;;;;6124543;23;20934;-85
2022/04/03 14:56:32;;;;;;;2.13;1.93;;;10.90;43.20;;;;;;6136341;23;20427;-85
2022/04/03 14:59:33;;;;;;;2.83;1.60;;;11.10;43.40;;;;;;6074150;23;20424;-87
2022/04/03 15:02:32;;;;;;;3.50;1.70;;;11.30;43.20;;;;;;6135921;23;20403;-84
2022/04/03 15:05:38;;;;;;;2.00;1.60;;;11.60;43.20;;;;;;6172521;23;20402;-86
2022/04/03 15:08:30;;;;;;;4.23;1.53;;;11.40;42.90;;;;;;6149627;23;20457;-87
2022/04/03 15:11:09;;;;;;;2.17;1.90;;;11.50;43.20;;;;;;6170049;23;20421;-82
2022/04/03 15:14:19;;;;;;;2.87;1.87;;;11.10;43.40;;;;;;6147439;23;20358;-85
2022/04/03 15:17:51;;;;;;;2.00;1.90;;;11.20;43.70;;;;;;6108723;23;20879;-82
2022/04/03 15:21:06;;;;;;;1.70;1.47;;;11.20;43.70;;;;;;6152428;23;20425;-85
2022/04/03 15:23:49;;;;;;;2.60;2.40;;;11.30;43.60;;;;;;6128499;23;20414;-83
2022/04/03 15:26:48;;;;;;;2.20;1.73;;;11.40;43.90;;;;;;6129644;23;20446;-86
2022/04/03 15:30:07;;;;;;;;;;;;;;;;;;;;;
2022/04/03 15:32:51;;;;;;;2.23;1.50;;;11.50;44.70;;;;;;6140581;23;20419;-85
2022/04/03 15:35:55;;;;;;;4.60;1.90;;;12.10;44.80;;;;;;6128316;23;20451;-85
2022/04/03 15:42:02;;;;;;;2.10;2.00;;;12.00;44.40;;;;;;6154617;23;20557;-85
2022/04/03 15:44:54;;;;;;;2.17;1.97;;;11.80;44.90;;;;;;6240931;23;20435;-85
2022/04/03 15:47:45;;;;;;;2.10;1.90;;;11.50;44.70;;;;;;6200600;23;20456;-85
2022/04/03 15:50:38;;;;;;;3.10;2.90;;;11.30;45.10;;;;;;6246867;23;20440;-84
2022/04/03 15:53:34;;;;;;;2.33;2.10;;;11.10;45.70;;;;;;6222265;23;20412;-84
2022/04/03 15:56:29;;;;;;;2.00;1.80;;;10.90;46.20;;;;;;6219227;23;20455;-83
2022/04/03 15:59:30;;;;;;;2.40;2.10;;;10.70;46.30;;;;;;6048152;23;20404;-84
2022/04/03 16:03:12;;;;;;;2.20;2.00;;;10.60;46.60;;;;;;6126105;23;20403;-85
2022/04/03 16:06:08;;;;;;;2.90;1.80;;;10.80;46.70;;;;;;6110624;23;20458;-85